createdAt,value
2023-11-21T00:01:05.804Z,9.68
2023-11-21T00:03:33.007Z,9.05
2023-11-21T00:05:59.844Z,9.98
2023-11-21T00:08:26.312Z,8.70
2023-11-21T00:10:52.931Z,10.25
2023-11-21T00:13:19.707Z,10.82
2023-11-21T00:15:46.274Z,10.40
2023-11-21T00:18:12.989Z,9.93
2023-11-21T00:20:39.546Z,9.77
2023-11-21T00:23:06.144Z,8.63
2023-11-21T00:25:33.037Z,9.15
2023-11-21T00:27:59.869Z,9.35
2023-11-21T00:30:26.455Z,8.10
2023-11-21T00:32:53.034Z,7.53
2023-11-21T00:35:19.627Z,6.47
2023-11-21T00:37:46.162Z,6.60
2023-11-21T00:40:13.503Z,6.03
2023-11-21T00:42:40.352Z,7.10
2023-11-21T00:45:08.020Z,6.35
2023-11-21T00:47:34.789Z,6.70
2023-11-21T00:50:01.613Z,5.68
2023-11-21T00:52:28.382Z,6.43
2023-11-21T00:54:55.075Z,6.57
2023-11-21T00:57:21.674Z,5.53
2023-11-21T00:59:48.193Z,5.32
2023-11-21T01:02:14.786Z,5.53
2023-11-21T01:04:41.346Z,5.60
2023-11-21T01:07:08.256Z,5.90
2023-11-21T01:09:34.862Z,5.97
2023-11-21T01:12:01.968Z,6.55
2023-11-21T01:14:28.771Z,5.90
2023-11-21T01:16:55.566Z,5.90
2023-11-21T01:19:22.343Z,5.63
2023-11-21T01:21:48.918Z,5.78
2023-11-21T01:24:15.591Z,5.97
2023-11-21T01:26:42.047Z,5.78
2023-11-21T01:29:08.656Z,5.43
2023-11-21T01:31:35.357Z,5.07
2023-11-21T01:34:02.066Z,5.43
2023-11-21T01:36:34.802Z,5.65
2023-11-21T01:39:01.505Z,4.63
2023-11-21T01:41:29.895Z,5.00
2023-11-21T01:43:57.145Z,4.93
2023-11-21T01:46:24.421Z,4.75
2023-11-21T01:48:51.396Z,4.43
2023-11-21T01:51:18.544Z,4.18
2023-11-21T01:53:47.811Z,4.57
2023-11-21T01:56:14.577Z,4.45
2023-11-21T01:58:42.228Z,4.10
2023-11-21T02:01:09.910Z,4.53
2023-11-21T02:03:36.635Z,3.88
2023-11-21T02:06:03.952Z,4.60
2023-11-21T02:08:30.432Z,4.22
2023-11-21T02:10:58.747Z,3.80
2023-11-21T02:13:25.557Z,4.30
2023-11-21T02:15:53.559Z,3.90
2023-11-21T02:18:20.267Z,4.68
2023-11-21T02:20:47.826Z,4.28
2023-11-21T02:23:14.535Z,3.58
2023-11-21T02:25:41.065Z,4.20
2023-11-21T02:28:08.061Z,3.97
2023-11-21T02:30:34.977Z,4.10
2023-11-21T02:33:02.752Z,4.38
2023-11-21T02:35:32.607Z,4.78
2023-11-21T02:37:59.568Z,4.45
2023-11-21T02:40:27.594Z,4.22
2023-11-21T02:42:54.431Z,3.45
2023-11-21T02:45:22.332Z,3.78
2023-11-21T02:47:50.493Z,3.60
2023-11-21T02:50:17.597Z,3.17
2023-11-21T02:52:44.280Z,3.72
2023-11-21T02:55:10.970Z,4.18
2023-11-21T02:57:37.523Z,3.95
2023-11-21T03:00:04.753Z,4.15
2023-11-21T03:02:31.470Z,4.20
2023-11-21T03:04:58.230Z,4.15
2023-11-21T03:07:24.739Z,4.40
2023-11-21T03:09:51.571Z,3.80
2023-11-21T03:12:18.189Z,4.32
2023-11-21T03:14:44.757Z,4.22
2023-11-21T03:17:11.357Z,4.00
2023-11-21T03:19:37.898Z,6.05
2023-11-21T03:22:05.404Z,4.93
2023-11-21T03:24:33.006Z,5.32
2023-11-21T03:26:59.519Z,5.28
2023-11-21T03:29:27.051Z,5.03
2023-11-21T03:31:53.646Z,5.15
2023-11-21T03:34:27.997Z,4.85
2023-11-21T03:36:54.988Z,4.50
2023-11-21T03:39:21.965Z,4.20
2023-11-21T03:41:48.555Z,4.47
2023-11-21T03:44:15.776Z,4.82
2023-11-21T03:46:42.338Z,4.75
2023-11-21T03:49:09.012Z,5.05
2023-11-21T03:51:35.547Z,4.57
2023-11-21T03:54:02.026Z,4.68
2023-11-21T03:56:28.508Z,4.55
2023-11-21T03:58:55.094Z,4.25
2023-11-21T04:01:25.554Z,4.30
2023-11-21T04:03:52.403Z,4.75
2023-11-21T04:06:19.115Z,4.50
2023-11-21T04:08:46.383Z,4.88
2023-11-21T04:11:13.635Z,3.95
2023-11-21T04:13:41.106Z,4.28
2023-11-21T04:16:08.826Z,4.43
2023-11-21T04:18:37.647Z,4.45
2023-11-21T04:21:05.023Z,4.30
2023-11-21T04:23:32.953Z,4.40
2023-11-21T04:28:26.775Z,4.53
2023-11-21T04:30:53.284Z,4.60
2023-11-21T04:33:19.946Z,4.13
2023-11-21T04:35:47.381Z,4.55
2023-11-21T04:38:14.029Z,3.67
2023-11-21T04:40:40.628Z,3.78
2023-11-21T04:43:07.229Z,5.10
2023-11-21T04:45:33.771Z,5.18
2023-11-21T04:48:00.392Z,5.90
2023-11-21T04:50:29.832Z,6.13
2023-11-21T04:52:56.438Z,5.65
2023-11-21T04:55:23.020Z,5.80
2023-11-21T04:57:49.620Z,5.60
2023-11-21T05:00:17.274Z,5.72
2023-11-21T05:02:45.802Z,5.72
2023-11-21T05:05:13.345Z,5.22
2023-11-21T05:07:40.832Z,6.10
2023-11-21T05:10:17.360Z,5.25
2023-11-21T05:12:43.995Z,5.43
2023-11-21T05:15:11.489Z,5.40
2023-11-21T05:17:40.060Z,6.07
2023-11-21T05:20:09.670Z,5.85
2023-11-21T05:22:36.737Z,5.70
2023-11-21T05:25:04.887Z,5.57
2023-11-21T05:27:34.450Z,6.05
2023-11-21T05:30:04.071Z,5.75
2023-11-21T05:32:30.635Z,5.38
2023-11-21T05:34:57.260Z,5.95
2023-11-21T05:37:24.415Z,6.82
2023-11-21T05:39:50.950Z,7.53
2023-11-21T05:42:18.079Z,6.80
2023-11-21T05:44:44.694Z,7.78
2023-11-21T05:47:11.622Z,8.80
2023-11-21T05:49:38.216Z,8.35
2023-11-21T05:52:06.343Z,8.50
2023-11-21T05:54:33.725Z,7.28
2023-11-21T05:57:01.049Z,5.70
2023-11-21T05:59:27.650Z,5.82
2023-11-21T06:01:54.944Z,6.30
2023-11-21T06:04:25.218Z,5.90
2023-11-21T06:06:53.821Z,7.93
2023-11-21T06:09:21.723Z,6.70
2023-11-21T06:14:14.676Z,4.50
2023-11-21T06:16:42.008Z,4.20
2023-11-21T06:19:08.527Z,4.32
2023-11-21T06:21:35.212Z,6.55
2023-11-21T06:24:02.652Z,5.68
2023-11-21T06:26:29.569Z,4.38
2023-11-21T06:29:04.265Z,3.38
2023-11-21T06:31:31.368Z,4.63
2023-11-21T06:33:58.986Z,4.07
2023-11-21T06:36:25.669Z,5.60
2023-11-21T06:38:52.204Z,2.90
2023-11-21T06:41:18.767Z,4.05
2023-11-21T06:43:47.868Z,3.40
2023-11-21T06:46:17.684Z,3.63
2023-11-21T06:48:44.695Z,3.58
2023-11-21T06:51:11.475Z,3.25
2023-11-21T06:53:39.555Z,3.67
2023-11-21T06:56:16.514Z,4.10
2023-11-21T06:58:43.165Z,3.88
2023-11-21T07:01:09.833Z,3.63
2023-11-21T07:03:38.695Z,4.00
2023-11-21T07:06:05.871Z,3.65
2023-11-21T07:08:32.689Z,4.90
2023-11-21T07:10:59.259Z,3.25
2023-11-21T07:13:25.857Z,3.28
2023-11-21T07:15:52.399Z,2.42
2023-11-21T07:18:19.410Z,2.97
2023-11-21T07:20:46.050Z,3.28
2023-11-21T07:23:12.563Z,10.77
2023-11-21T07:25:39.147Z,12.10
2023-11-21T07:28:06.639Z,6.30
2023-11-21T07:30:33.569Z,4.40
2023-11-21T07:33:00.261Z,4.75
2023-11-21T07:35:27.755Z,4.30
2023-11-21T07:37:54.332Z,4.30
2023-11-21T07:40:21.014Z,4.30
2023-11-21T07:42:47.528Z,6.68
2023-11-21T07:45:14.198Z,5.30
2023-11-21T07:47:41.067Z,12.85
2023-11-21T07:50:09.045Z,4.72
2023-11-21T07:52:35.842Z,8.18
2023-11-21T07:55:02.820Z,7.82
2023-11-21T07:57:29.445Z,6.38
2023-11-21T07:59:56.379Z,5.70
2023-11-21T08:02:22.995Z,6.05
2023-11-21T08:04:52.647Z,6.28
2023-11-21T08:07:19.279Z,6.65
2023-11-21T08:09:45.858Z,7.75
2023-11-21T08:12:12.447Z,9.05
2023-11-21T08:14:40.199Z,8.10
2023-11-21T08:19:34.303Z,7.85
2023-11-21T08:22:00.901Z,6.70
2023-11-21T08:24:27.719Z,6.25
2023-11-21T08:26:55.343Z,6.43
2023-11-21T08:29:21.847Z,7.10
2023-11-21T08:31:48.426Z,6.45
2023-11-21T08:34:16.448Z,5.82
2023-11-21T08:36:44.369Z,8.80
2023-11-21T08:41:41.207Z,5.78
2023-11-21T08:44:08.139Z,5.55
2023-11-21T08:46:35.437Z,6.78
2023-11-21T08:49:02.546Z,7.60
2023-11-21T08:51:29.008Z,6.78
2023-11-21T08:53:56.074Z,6.50
2023-11-21T08:56:22.676Z,6.22
2023-11-21T08:58:49.211Z,6.22
2023-11-21T09:01:15.768Z,6.22
2023-11-21T09:03:42.682Z,6.53
2023-11-21T09:06:11.026Z,6.18
2023-11-21T09:08:38.259Z,5.55
2023-11-21T09:11:04.962Z,5.55
2023-11-21T09:13:31.520Z,4.85
2023-11-21T09:15:58.042Z,5.97
2023-11-21T09:18:24.708Z,5.70
2023-11-21T09:20:51.274Z,7.32
2023-11-21T09:23:17.890Z,6.50
2023-11-21T09:25:47.411Z,7.25
2023-11-21T09:28:14.325Z,6.57
2023-11-21T09:30:40.832Z,6.05
2023-11-21T09:33:07.869Z,5.75
2023-11-21T09:35:34.429Z,4.63
2023-11-21T09:38:02.819Z,5.13
2023-11-21T09:40:29.799Z,5.18
2023-11-21T09:42:58.314Z,7.28
2023-11-21T09:45:28.894Z,5.68
2023-11-21T09:47:59.606Z,6.50
2023-11-21T09:50:29.716Z,7.20
2023-11-21T09:53:17.525Z,7.47
2023-11-21T09:55:45.665Z,9.20
2023-11-21T09:58:15.403Z,8.95
2023-11-21T10:00:47.122Z,7.97
2023-11-21T10:03:14.675Z,13.10
2023-11-21T10:05:43.372Z,10.18
2023-11-21T10:08:11.709Z,7.07
2023-11-21T10:10:42.513Z,17.50
2023-11-21T10:13:13.214Z,15.38
2023-11-21T10:15:42.523Z,14.23
2023-11-21T10:18:10.643Z,9.55
2023-11-21T10:20:39.135Z,5.82
2023-11-21T10:23:08.582Z,4.28
2023-11-21T10:25:36.932Z,4.30
2023-11-21T10:28:08.173Z,4.90
2023-11-21T10:30:39.292Z,4.22
2023-11-21T10:33:06.691Z,4.40
2023-11-21T10:35:52.611Z,4.32
2023-11-21T10:40:47.754Z,5.22
2023-11-21T10:43:16.170Z,7.28
2023-11-21T10:45:43.969Z,5.75
2023-11-21T10:50:44.986Z,4.40
2023-11-21T10:53:13.050Z,4.25
2023-11-21T10:55:40.068Z,5.30
2023-11-21T10:58:08.384Z,5.43
2023-11-21T11:00:35.098Z,4.30
2023-11-21T11:03:02.429Z,4.20
2023-11-21T11:05:31.250Z,4.35
2023-11-21T11:08:04.176Z,4.50
2023-11-21T11:10:30.976Z,5.55
2023-11-21T11:12:58.657Z,5.40
2023-11-21T11:17:53.566Z,4.68
2023-11-21T11:20:23.160Z,5.22
2023-11-21T11:23:10.148Z,6.90
2023-11-21T11:25:54.939Z,8.02
2023-11-21T11:28:27.644Z,7.55
2023-11-21T11:31:35.662Z,6.93
2023-11-21T11:34:27.036Z,8.63
2023-11-21T11:37:03.619Z,7.72
2023-11-21T11:39:31.855Z,7.05
2023-11-21T11:42:02.540Z,5.75
2023-11-21T11:44:47.041Z,4.25
2023-11-21T11:47:24.278Z,4.68
2023-11-21T11:50:15.209Z,4.40
2023-11-21T11:52:46.909Z,4.50
2023-11-21T11:55:16.833Z,4.22
2023-11-21T11:57:44.196Z,5.32
2023-11-21T12:00:30.039Z,4.88
2023-11-21T12:05:31.767Z,5.50
2023-11-21T12:07:59.368Z,5.20
2023-11-21T12:10:27.538Z,5.05
2023-11-21T12:12:56.944Z,6.85
2023-11-21T12:15:24.259Z,4.32
2023-11-21T12:17:51.448Z,4.20
2023-11-21T12:20:21.272Z,4.18
2023-11-21T12:23:06.903Z,2.80
2023-11-21T12:25:34.356Z,2.60
2023-11-21T12:28:02.129Z,2.83
2023-11-21T12:30:34.005Z,3.08
2023-11-21T12:33:02.224Z,2.53
2023-11-21T12:35:36.421Z,2.40
2023-11-21T12:38:06.177Z,1.67
2023-11-21T12:40:33.147Z,2.50
2023-11-21T12:43:02.381Z,3.38
2023-11-21T12:45:30.266Z,4.00
2023-11-21T12:50:40.155Z,2.97
2023-11-21T12:53:10.054Z,3.42
2023-11-21T12:55:40.364Z,2.58
2023-11-21T12:58:12.375Z,2.42
2023-11-21T13:00:47.962Z,2.78
2023-11-21T13:03:24.998Z,2.95
2023-11-21T13:05:53.126Z,2.92
2023-11-21T13:08:23.483Z,6.88
2023-11-21T13:10:52.998Z,4.25
2023-11-21T13:13:23.654Z,5.50
2023-11-21T13:16:01.763Z,12.35
2023-11-21T13:18:29.558Z,8.63
2023-11-21T13:20:57.889Z,5.70
2023-11-21T13:23:25.148Z,7.13
2023-11-21T13:25:58.165Z,9.27
2023-11-21T13:28:33.377Z,9.55
2023-11-21T13:31:10.686Z,7.88
2023-11-21T13:33:44.128Z,5.75
2023-11-21T13:36:11.803Z,5.63
2023-11-21T13:38:43.357Z,6.05
2023-11-21T13:41:11.444Z,5.60
2023-11-21T13:43:38.566Z,5.35
2023-11-21T13:46:14.718Z,5.68
2023-11-21T13:48:51.861Z,5.70
2023-11-21T13:51:18.904Z,5.40
2023-11-21T13:53:49.116Z,5.88
2023-11-21T13:56:20.683Z,5.28
2023-11-21T13:58:53.792Z,4.65
2023-11-21T14:01:31.010Z,5.10
2023-11-21T14:04:32.588Z,5.15
2023-11-21T14:07:02.235Z,4.60
2023-11-21T14:09:34.054Z,3.90
2023-11-21T14:12:01.909Z,4.57
2023-11-21T14:14:31.995Z,4.28
2023-11-21T14:16:59.987Z,3.90
2023-11-21T14:19:32.777Z,3.88
2023-11-21T14:21:59.462Z,4.85
2023-11-21T14:24:26.662Z,5.25
2023-11-21T14:26:53.985Z,6.72
2023-11-21T14:29:21.589Z,7.88
2023-11-21T14:34:18.708Z,5.60
2023-11-21T14:36:47.243Z,6.65
2023-11-21T14:39:27.991Z,5.30
2023-11-21T14:41:57.814Z,4.38
2023-11-21T14:44:33.954Z,5.22
2023-11-21T14:47:01.656Z,5.57
2023-11-21T14:52:01.696Z,5.88
2023-11-21T14:54:38.452Z,7.88
2023-11-21T14:57:06.221Z,8.85
2023-11-21T14:59:33.515Z,10.18
2023-11-21T15:02:01.434Z,10.45
2023-11-21T15:04:37.842Z,8.75
2023-11-21T15:07:05.449Z,9.25
2023-11-21T15:09:32.672Z,7.97
2023-11-21T15:12:15.462Z,7.72
2023-11-21T15:14:53.328Z,10.40
2023-11-21T15:17:27.890Z,13.60
2023-11-21T15:19:55.397Z,12.25
2023-11-21T15:22:22.717Z,10.15
2023-11-21T15:24:50.499Z,8.60
2023-11-21T15:27:18.359Z,10.32
2023-11-21T15:29:45.282Z,9.15
2023-11-21T15:32:12.501Z,11.25
2023-11-21T15:34:39.591Z,10.32
2023-11-21T15:37:11.930Z,8.63
2023-11-21T15:39:40.098Z,13.07
2023-11-21T15:42:08.517Z,14.15
2023-11-21T15:44:35.396Z,14.80
2023-11-21T15:47:05.043Z,11.85
2023-11-21T15:49:37.894Z,12.40
2023-11-21T15:52:11.116Z,10.88
2023-11-21T15:54:38.287Z,8.90
2023-11-21T15:57:05.756Z,8.65
2023-11-21T15:59:34.166Z,7.47
2023-11-21T16:02:01.945Z,7.00
2023-11-21T16:04:29.384Z,7.38
2023-11-21T16:06:56.042Z,11.07
2023-11-21T16:09:31.855Z,7.80
2023-11-21T16:12:03.450Z,8.85
2023-11-21T16:14:36.739Z,7.32
2023-11-21T16:17:04.411Z,6.85
2023-11-21T16:19:31.310Z,7.88
2023-11-21T16:21:57.909Z,8.63
2023-11-21T16:24:25.265Z,10.38
2023-11-21T16:26:51.839Z,10.07
2023-11-21T16:29:18.477Z,9.32
2023-11-21T16:31:46.673Z,9.63
2023-11-21T16:34:21.001Z,8.30
2023-11-21T16:36:47.833Z,7.00
2023-11-21T16:39:14.858Z,8.20
2023-11-21T16:41:42.919Z,7.20
2023-11-21T16:44:20.026Z,6.63
2023-11-21T16:46:48.410Z,7.32
2023-11-21T16:49:15.053Z,7.38
2023-11-21T16:51:41.636Z,12.80
2023-11-21T16:54:08.162Z,16.20
2023-11-21T16:56:34.751Z,14.60
2023-11-21T16:59:01.303Z,12.55
2023-11-21T17:01:28.994Z,18.38
2023-11-21T17:03:58.960Z,15.15
2023-11-21T17:06:28.766Z,6.82
2023-11-21T17:08:56.520Z,5.13
2023-11-21T17:13:49.732Z,6.40
2023-11-21T17:16:17.575Z,8.48
2023-11-21T17:21:19.347Z,7.28
2023-11-21T17:23:49.599Z,13.35
2023-11-21T17:26:17.149Z,13.75
2023-11-21T17:28:44.466Z,14.90
2023-11-21T17:31:11.115Z,16.13
2023-11-21T17:33:37.787Z,16.75
2023-11-21T17:36:10.106Z,25.88
2023-11-21T17:38:38.124Z,25.45
2023-11-21T17:41:05.542Z,10.52
2023-11-21T17:43:40.465Z,6.45
2023-11-21T17:46:09.059Z,5.85
2023-11-21T17:48:37.711Z,6.07
2023-11-21T17:51:04.587Z,5.90
2023-11-21T17:53:31.144Z,7.95
2023-11-21T17:55:57.740Z,7.63
2023-11-21T17:58:24.369Z,5.80
2023-11-21T18:00:50.988Z,5.90
2023-11-21T18:03:17.665Z,6.43
2023-11-21T18:05:45.020Z,6.10
2023-11-21T18:08:11.607Z,5.97
2023-11-21T18:10:38.113Z,8.85
2023-11-21T18:13:04.677Z,10.13
2023-11-21T18:15:31.220Z,11.45
2023-11-21T18:17:58.138Z,12.30
2023-11-21T18:20:24.816Z,13.77
2023-11-21T18:22:51.434Z,11.55
2023-11-21T18:25:19.084Z,11.02
2023-11-21T18:30:12.666Z,8.00
2023-11-21T18:32:39.380Z,6.72
2023-11-21T18:35:06.686Z,7.35
2023-11-21T18:37:33.512Z,7.03
2023-11-21T18:40:00.095Z,7.57
2023-11-21T18:42:29.051Z,8.95
2023-11-21T18:44:59.240Z,7.90
2023-11-21T18:47:27.962Z,7.60
2023-11-21T18:49:56.038Z,7.95
2023-11-21T18:52:24.372Z,7.68
2023-11-21T18:54:51.190Z,8.38
2023-11-21T18:57:17.848Z,7.40
2023-11-21T18:59:45.209Z,8.98
2023-11-21T19:02:15.248Z,9.25
2023-11-21T19:04:42.179Z,8.27
2023-11-21T19:07:08.782Z,9.73
2023-11-21T19:09:36.545Z,10.23
2023-11-21T19:14:32.852Z,10.80
2023-11-21T19:17:00.273Z,8.63
2023-11-21T19:19:27.753Z,9.35
2023-11-21T19:21:54.990Z,9.52
2023-11-21T19:24:21.675Z,9.40
2023-11-21T19:26:48.408Z,9.52
2023-11-21T19:29:14.966Z,8.77
2023-11-21T19:31:41.594Z,8.93
2023-11-21T19:34:08.282Z,9.40
2023-11-21T19:36:39.555Z,8.73
2023-11-21T19:39:06.148Z,9.90
2023-11-21T19:41:32.691Z,9.73
2023-11-21T19:44:00.169Z,8.90
2023-11-21T19:46:26.959Z,8.27
2023-11-21T19:48:54.520Z,9.63
2023-11-21T19:51:22.940Z,8.13
2023-11-21T19:53:49.990Z,8.18
2023-11-21T19:56:16.850Z,7.88
2023-11-21T19:58:43.475Z,8.43
2023-11-21T20:01:13.169Z,8.60
2023-11-21T20:03:39.961Z,8.38
2023-11-21T20:06:07.568Z,10.20
2023-11-21T20:08:37.494Z,10.15
2023-11-21T20:11:05.519Z,9.75
2023-11-21T20:13:32.660Z,10.05
2023-11-21T20:15:59.176Z,10.88
2023-11-21T20:18:27.371Z,9.93
2023-11-21T20:20:54.309Z,10.65
2023-11-21T20:23:21.793Z,9.10
2023-11-21T20:25:48.623Z,9.27
2023-11-21T20:28:15.244Z,9.95
2023-11-21T20:30:41.903Z,7.90
2023-11-21T20:33:08.662Z,10.70
2023-11-21T20:35:38.822Z,8.40
2023-11-21T20:38:06.113Z,7.80
2023-11-21T20:40:32.674Z,9.02
2023-11-21T20:43:03.899Z,8.20
2023-11-21T20:45:31.345Z,7.63
2023-11-21T20:47:58.444Z,8.43
2023-11-21T20:50:25.489Z,7.40
2023-11-21T20:52:52.315Z,7.43
2023-11-21T20:55:20.969Z,7.15
2023-11-21T20:57:47.653Z,7.80
2023-11-21T21:00:16.553Z,9.63
2023-11-21T21:02:43.507Z,10.80
2023-11-21T21:05:10.993Z,10.32
2023-11-21T21:07:37.601Z,9.82
2023-11-21T21:10:04.318Z,9.35
2023-11-21T21:12:30.843Z,8.02
2023-11-21T21:14:57.386Z,7.65
2023-11-21T21:17:23.967Z,7.03
2023-11-21T21:19:50.565Z,7.47
2023-11-21T21:22:17.142Z,8.02
2023-11-21T21:24:43.621Z,7.65
2023-11-21T21:27:10.109Z,7.50
2023-11-21T21:29:36.627Z,8.30
2023-11-21T21:32:03.297Z,7.68
2023-11-21T21:34:29.844Z,7.90
2023-11-21T21:36:56.546Z,7.82
2023-11-21T21:39:23.382Z,8.15
2023-11-21T21:41:52.000Z,8.32
2023-11-21T21:44:18.715Z,7.00
2023-11-21T21:46:45.349Z,7.57
2023-11-21T21:49:12.606Z,7.40
2023-11-21T21:51:39.125Z,6.88
2023-11-21T21:54:08.139Z,8.60
2023-11-21T21:56:36.358Z,8.05
2023-11-21T21:59:02.949Z,8.15
2023-11-21T22:01:31.931Z,8.02
2023-11-21T22:04:01.047Z,8.30
2023-11-21T22:06:29.855Z,7.30
2023-11-21T22:08:57.384Z,8.15
2023-11-21T22:11:24.049Z,8.40
2023-11-21T22:13:50.633Z,9.43
2023-11-21T22:16:18.410Z,8.07
2023-11-21T22:18:45.019Z,8.43
2023-11-21T22:21:15.586Z,8.05
2023-11-21T22:23:42.060Z,9.43
2023-11-21T22:26:08.642Z,8.90
2023-11-21T22:28:36.195Z,8.60
2023-11-21T22:31:02.838Z,9.27
2023-11-21T22:33:29.333Z,7.55
2023-11-21T22:35:55.801Z,9.63
2023-11-21T22:38:22.365Z,9.02
2023-11-21T22:40:49.131Z,8.95
2023-11-21T22:43:17.751Z,8.18
2023-11-21T22:45:44.904Z,9.35
2023-11-21T22:48:11.893Z,8.52
2023-11-21T22:50:38.912Z,10.73
2023-11-21T22:53:05.463Z,9.98
2023-11-21T22:55:33.449Z,8.98
2023-11-21T22:58:00.658Z,9.55
2023-11-21T23:00:30.723Z,9.63
2023-11-21T23:02:58.345Z,9.05
2023-11-21T23:05:24.967Z,10.00
2023-11-21T23:07:51.681Z,9.13
2023-11-21T23:10:19.288Z,9.40
2023-11-21T23:12:45.947Z,9.13
2023-11-21T23:15:12.452Z,9.32
2023-11-21T23:17:41.393Z,8.15
2023-11-21T23:20:11.075Z,9.07
2023-11-21T23:22:41.261Z,8.02
2023-11-21T23:25:09.644Z,8.20
2023-11-21T23:27:36.196Z,8.27
2023-11-21T23:30:02.837Z,8.45
2023-11-21T23:32:29.501Z,7.40
2023-11-21T23:34:56.125Z,8.20
2023-11-21T23:37:22.933Z,7.82
2023-11-21T23:39:49.550Z,8.07
2023-11-21T23:42:17.495Z,7.82
2023-11-21T23:47:10.973Z,8.27
2023-11-21T23:49:37.738Z,8.75
2023-11-21T23:52:04.539Z,9.85
2023-11-21T23:54:31.169Z,10.43
2023-11-21T23:56:59.105Z,10.05
2023-11-21T23:59:26.368Z,10.20
